createdAt,value
2022-10-01T00:00:13.464Z,13
2022-10-01T00:10:14.112Z,13
2022-10-01T00:20:14.910Z,12.9
2022-10-01T00:30:15.090Z,12.9
2022-10-01T00:40:15.132Z,12.9
2022-10-01T00:50:15.871Z,12.8
2022-10-01T01:00:16.064Z,12.6
2022-10-01T01:10:16.657Z,12.1
2022-10-01T01:20:17.405Z,11.6
2022-10-01T01:30:18.246Z,11.4
2022-10-01T01:40:18.506Z,11.2
2022-10-01T01:50:19.352Z,11.1
2022-10-01T02:10:20.707Z,10.9
2022-10-01T02:20:21.502Z,10.8
2022-10-01T02:30:22.363Z,10.8
2022-10-01T02:40:23.342Z,10.7
2022-10-01T03:00:24.018Z,10.6
2022-10-01T03:10:25.059Z,10.6
2022-10-01T03:30:25.821Z,10.5
2022-10-01T03:40:26.839Z,10.6
2022-10-01T03:50:27.880Z,10.5
2022-10-01T04:00:28.114Z,10.5
2022-10-01T04:20:29.100Z,10.5
2022-10-01T04:40:29.932Z,10.6
2022-10-01T05:00:31.636Z,10.9
2022-10-01T05:10:32.089Z,11
2022-10-01T05:20:32.209Z,11.2
2022-10-01T05:40:33.330Z,11.2
2022-10-01T05:50:34.143Z,11.2
2022-10-01T06:00:34.808Z,11.2
2022-10-01T06:20:35.740Z,11.2
2022-10-01T06:40:36.955Z,11.3
2022-10-01T07:00:38.618Z,11.4
2022-10-01T07:20:39.077Z,11.6
2022-10-01T07:30:39.198Z,11.6
2022-10-01T07:40:39.286Z,11.6
2022-10-01T08:10:41.037Z,11.9
2022-10-01T08:20:42.089Z,12.1
2022-10-01T08:50:43.877Z,13.2
2022-10-01T09:00:45.048Z,13.3
2022-10-01T09:10:45.483Z,13.5
2022-10-01T09:20:45.643Z,13.8
2022-10-01T09:30:46.343Z,13.9
2022-10-01T09:40:47.255Z,13.9
2022-10-01T09:50:47.513Z,14
2022-10-01T10:00:47.965Z,14.2
2022-10-01T10:10:48.507Z,14.3
2022-10-01T10:20:48.698Z,14.1
2022-10-01T10:30:49.494Z,14.3
2022-10-01T10:40:49.764Z,14.4
2022-10-01T10:50:49.887Z,14.6
2022-10-01T11:10:50.361Z,15.4
2022-10-01T12:10:54.739Z,16
2022-10-01T12:20:54.846Z,15.8
2022-10-01T12:30:55.764Z,14.8
2022-10-01T12:40:56.210Z,14.7
2022-10-01T13:00:58.186Z,15.2
2022-10-01T13:10:58.818Z,14.1
2022-10-01T13:20:59.061Z,13.2
2022-10-01T13:30:59.282Z,13.5
2022-10-01T13:40:59.403Z,13.5
2022-10-01T13:51:00.061Z,13.2
2022-10-01T14:01:00.216Z,13.9
2022-10-01T14:11:00.475Z,14.1
2022-10-01T14:21:00.729Z,14.3
2022-10-01T14:31:09.080Z,14.6
2022-10-01T14:41:09.580Z,15
2022-10-01T14:51:09.804Z,15.5
2022-10-01T15:01:10.203Z,14.6
2022-10-01T15:11:10.681Z,14.2
2022-10-01T15:21:10.871Z,14
2022-10-01T15:31:11.739Z,14.2
2022-10-01T15:51:13.353Z,14.8
2022-10-01T16:01:15.301Z,15.1
2022-10-01T16:11:14.711Z,15.2
2022-10-01T16:21:15.393Z,15.1
2022-10-01T16:31:15.601Z,15
2022-10-01T16:41:16.129Z,14.8
2022-10-01T16:51:16.265Z,14.7
2022-10-01T17:01:16.495Z,14.7
2022-10-01T17:11:17.014Z,14.6
2022-10-01T17:21:17.762Z,14.1
2022-10-01T17:31:18.348Z,14.1
2022-10-01T17:41:19.150Z,13.7
2022-10-01T17:51:19.933Z,13.5
2022-10-01T18:01:20.810Z,13.7
2022-10-01T18:11:21.408Z,13.7
2022-10-01T18:21:22.419Z,13.5
2022-10-01T18:41:23.512Z,13.3
2022-10-01T18:51:23.997Z,12.9
2022-10-01T19:01:24.208Z,12.8
2022-10-01T19:11:24.841Z,12.8
2022-10-01T19:21:25.421Z,12.7
2022-10-01T19:31:26.034Z,12.8
2022-10-01T19:41:26.906Z,13.1
2022-10-01T19:51:27.140Z,13.1
2022-10-01T20:01:28.124Z,13.1
2022-10-01T20:11:28.740Z,13.1
2022-10-01T20:21:29.733Z,13
2022-10-01T20:31:30.472Z,12.9
2022-10-01T20:41:30.986Z,12.7
2022-10-01T21:01:32.275Z,12.9
2022-10-01T21:11:32.394Z,13
2022-10-01T21:31:33.737Z,13
2022-10-01T21:41:34.200Z,12.8
2022-10-01T21:51:34.671Z,12.8
2022-10-01T22:01:35.425Z,12.8
2022-10-01T22:11:35.732Z,12.7
2022-10-01T22:21:36.206Z,12.8
2022-10-01T22:31:37.064Z,12.7
2022-10-01T22:41:37.298Z,12.8
2022-10-01T22:51:37.739Z,12.7
2022-10-01T23:01:38.707Z,12.7
2022-10-01T23:11:38.855Z,12.7
2022-10-01T23:21:39.050Z,12.8
2022-10-01T23:31:39.507Z,12.7
2022-10-01T23:41:39.710Z,12.7
2022-10-01T23:51:39.864Z,12.7
